Vero Beach Municipal Airport
KVRB : now visible

Airfield :











YOU CAN JOIN US ON...

 
LOGIN :

Register | Disclaimer

   EN    FR    IT 

 









Legend :    VFR   Marginal VFR   IFR   Intensive IFR   Very Intensive IFR
Visi :
Ceiling :
>= 8 km
>= 3000ft
5 to 8 km
1000 to 3000 ft
1500m to 5 km
500 to 1000 ft
800 to 1500m
200 to 500 ft
< 800m
< 200 ft
Symbols :   Thunderstorms  Fog  Heavy snow  Heavy precipitations  Wind > 20 kt






- Airport Elevation : 24 ft
- IATA code : VRB


KVRB - Vero Beach Municipal

CURRENT METAR :
  • 101014Z AUTO 26012KT 8SM OVC016 24/22 A2979 RMK AO2 T02440217

EXPIRED METARs :
  • 100953Z AUTO 27012KT 8SM OVC014 24/22 A2978 RMK AO2 SLP085 T02440217
  • 100853Z AUTO 28011KT 7SM BKN012 24/22 A2978 RMK AO2 SLP084 T02390217 57003
  • 100820Z AUTO 26013KT 8SM OVC010 24/22 A2977 RMK AO2 T02390217
  • 100753Z AUTO 26012KT 8SM OVC010 24/22 A2978 RMK AO2 CIG 008V012 SLP083 T02390217

TAF KVRB
Valid from the 10 at 06:00 until the 11 at 06:00 UTC


100520Z 1006/1106 26010KT P6SM FEW030 SCT250
FM101000 25008KT P6SM SCT008 BKN012
FM101500 30012KT P6SM FEW015 BKN025
FM101700 35013G23KT P6SM VCSH SCT030 BKN050
TEMPO 1018/1022 TS BKN030CB BKN060
FM102300 35010KT P6SM SCT035 BKN100



MET'MAP, your aeronautical weather chart ! - Copyright ORBIFLY December 2007 - Disclaimer

ORBIFLY MET'MAP TEAM :

Programming & Development : Alexandra Zaïnal
Concept & original design : Baudouin d'Aumeries
Assistance for programming : Marc-Olivier Méhu
Technical & hardware support : Manuel Goepfert

Contact : metmap@orbifly.com




SOURCES & CREDITS :

   NOAA       Earth
Advisory